Time;durP1;ratioP1;P1;durP2;ratioP2;P2;SDS_P1;SDS_P2;PMS_P1;PMS_P2;Temp;Humidity;BMP_temperature;BMP_pressure;BME280_temperature;BME280_humidity;BME280_pressure;Samples;Min_cycle;Max_cycle;Signal;HPM_P1;HPM_P2
2023/10/24 00:01:31;;;;;;;13.07;7.53;;;11.20;99.90;;;;;;5044617;28;20045;-74
2023/10/24 00:03:57;;;;;;;13.57;7.32;;;11.30;99.90;;;;;;5034366;28;20386;-73
2023/10/24 00:06:22;;;;;;;15.68;7.32;;;11.30;99.90;;;;;;5048794;28;20063;-74
2023/10/24 00:08:48;;;;;;;12.13;7.47;;;11.30;99.90;;;;;;5047031;28;20028;-75
2023/10/24 00:11:13;;;;;;;13.18;7.78;;;11.30;99.90;;;;;;5038996;28;20466;-75
2023/10/24 00:13:39;;;;;;;13.18;7.40;;;11.30;99.90;;;;;;5029315;28;20029;-73
2023/10/24 00:16:05;;;;;;;12.85;7.28;;;11.30;99.90;;;;;;5029564;28;20367;-74
2023/10/24 00:18:30;;;;;;;12.95;7.50;;;11.30;99.90;;;;;;5037282;28;20031;-75
2023/10/24 00:20:56;;;;;;;12.98;7.20;;;11.30;99.90;;;;;;5039359;28;20043;-73
2023/10/24 00:23:22;;;;;;;13.00;7.25;;;11.30;99.90;;;;;;5031026;28;20033;-75
2023/10/24 00:25:47;;;;;;;12.40;6.32;;;11.30;99.90;;;;;;5029181;28;20056;-74
2023/10/24 00:28:13;;;;;;;8.85;5.72;;;11.30;99.90;;;;;;5029395;28;20033;-75
2023/10/24 00:30:39;;;;;;;11.48;6.63;;;11.30;99.90;;;;;;5036116;28;20057;-75
2023/10/24 00:33:05;;;;;;;11.65;6.78;;;11.20;99.90;;;;;;5039315;28;20104;-73
2023/10/24 00:35:32;;;;;;;14.52;7.25;;;11.10;99.90;;;;;;5039902;28;20029;-74
2023/10/24 00:37:57;;;;;;;15.85;8.00;;;11.00;99.90;;;;;;5029264;28;20033;-74
2023/10/24 00:40:23;;;;;;;11.85;7.03;;;11.00;99.90;;;;;;5029445;28;20029;-75
2023/10/24 00:42:51;;;;;;;12.18;7.10;;;11.00;99.90;;;;;;5029843;28;20032;-75
2023/10/24 00:45:17;;;;;;;12.27;7.18;;;11.00;99.90;;;;;;5029232;28;20087;-75
2023/10/24 00:47:43;;;;;;;12.55;7.38;;;11.00;99.90;;;;;;5029037;28;20052;-74
2023/10/24 00:50:09;;;;;;;14.63;7.15;;;11.00;99.90;;;;;;5032089;28;20039;-73
2023/10/24 00:52:36;;;;;;;12.23;6.82;;;11.10;99.90;;;;;;5038955;28;20081;-73
2023/10/24 00:55:03;;;;;;;13.25;7.28;;;11.10;99.90;;;;;;5027949;28;20478;-73
2023/10/24 00:57:29;;;;;;;12.27;6.78;;;11.00;99.90;;;;;;5034541;28;20083;-75
2023/10/24 00:59:55;;;;;;;11.57;6.80;;;11.00;99.90;;;;;;5034974;28;20029;-75
2023/10/24 01:02:21;;;;;;;12.70;7.15;;;10.90;99.90;;;;;;5030706;28;20537;-75
2023/10/24 01:04:48;;;;;;;13.50;7.63;;;10.90;99.90;;;;;;5030385;28;20049;-74
2023/10/24 01:07:13;;;;;;;13.00;7.43;;;10.90;99.90;;;;;;5041187;28;20120;-74
2023/10/24 01:09:39;;;;;;;16.25;7.70;;;10.90;99.90;;;;;;5029614;28;20793;-73
2023/10/24 01:12:06;;;;;;;13.40;7.18;;;10.90;99.90;;;;;;5031692;28;20490;-75
2023/10/24 01:14:32;;;;;;;14.02;7.30;;;10.90;99.90;;;;;;5036808;28;20468;-75
2023/10/24 01:16:58;;;;;;;17.65;8.00;;;10.90;99.90;;;;;;5030253;28;20033;-75
2023/10/24 01:19:24;;;;;;;13.50;7.10;;;10.90;99.90;;;;;;5028326;28;20489;-75
2023/10/24 01:21:50;;;;;;;15.32;7.70;;;10.90;99.90;;;;;;5037256;28;20080;-74
2023/10/24 01:24:17;;;;;;;13.90;7.30;;;10.90;99.90;;;;;;5028585;28;20029;-74
2023/10/24 01:26:43;;;;;;;15.60;8.05;;;10.90;99.90;;;;;;5028313;28;20026;-74
2023/10/24 01:29:12;;;;;;;15.25;7.55;;;10.90;99.90;;;;;;5029624;28;20037;-74
2023/10/24 01:31:38;;;;;;;15.35;8.38;;;10.90;99.90;;;;;;5038704;28;20048;-75
2023/10/24 01:34:03;;;;;;;18.67;7.78;;;10.90;99.90;;;;;;5039363;28;20029;-73
2023/10/24 01:36:30;;;;;;;12.85;7.70;;;10.90;99.90;;;;;;5038562;28;20029;-74
2023/10/24 01:38:55;;;;;;;17.50;8.10;;;10.90;99.90;;;;;;5028891;28;20022;-74
2023/10/24 01:41:21;;;;;;;15.15;8.10;;;10.80;99.90;;;;;;5028804;28;20477;-74
2023/10/24 01:43:47;;;;;;;12.95;7.90;;;10.80;99.90;;;;;;5027874;28;20069;-74
2023/10/24 01:46:13;;;;;;;14.82;7.78;;;10.80;99.90;;;;;;5033132;28;20033;-73
2023/10/24 01:48:40;;;;;;;14.57;7.55;;;10.70;99.90;;;;;;5036638;28;20034;-73
2023/10/24 01:51:06;;;;;;;13.32;7.50;;;10.80;99.90;;;;;;5029652;28;20038;-74
2023/10/24 01:53:31;;;;;;;15.57;7.85;;;10.70;99.90;;;;;;5041600;28;20044;-74
2023/10/24 01:55:57;;;;;;;15.52;7.38;;;10.70;99.90;;;;;;5047058;28;20032;-74
2023/10/24 01:58:22;;;;;;;15.52;7.28;;;10.60;99.90;;;;;;5028627;28;20038;-74
2023/10/24 02:00:48;;;;;;;11.40;7.03;;;10.60;99.90;;;;;;5031844;28;20032;-74
2023/10/24 02:03:13;;;;;;;14.40;7.70;;;10.70;99.90;;;;;;5034870;28;20029;-74
2023/10/24 02:05:39;;;;;;;14.13;7.32;;;10.70;99.90;;;;;;5033119;28;20021;-74
2023/10/24 02:08:05;;;;;;;12.50;7.78;;;10.70;99.90;;;;;;5034309;28;20025;-73
2023/10/24 02:10:30;;;;;;;15.85;7.75;;;10.80;99.90;;;;;;5040113;28;20122;-74
2023/10/24 02:12:56;;;;;;;13.85;7.35;;;10.80;99.90;;;;;;5036149;28;20053;-73
2023/10/24 02:15:22;;;;;;;14.75;7.68;;;10.80;99.90;;;;;;5033566;28;20104;-75
2023/10/24 02:17:48;;;;;;;13.88;8.10;;;10.80;99.90;;;;;;5046014;28;20260;-73
2023/10/24 02:20:14;;;;;;;13.13;8.00;;;10.80;99.90;;;;;;5034216;28;21562;-72
2023/10/24 02:22:40;;;;;;;13.95;7.82;;;10.80;99.90;;;;;;5025572;28;20029;-73
2023/10/24 02:25:08;;;;;;;13.93;8.27;;;10.80;99.90;;;;;;5025823;28;20029;-72
2023/10/24 02:27:34;;;;;;;13.02;7.35;;;10.90;99.90;;;;;;5027640;28;20032;-74
2023/10/24 02:30:01;;;;;;;13.80;6.90;;;10.90;99.90;;;;;;5028136;28;20029;-73
2023/10/24 02:32:27;;;;;;;11.80;6.90;;;10.80;99.90;;;;;;5020440;28;20041;-72
2023/10/24 02:34:52;;;;;;;12.95;7.30;;;10.70;99.90;;;;;;5021318;28;20093;-72
2023/10/24 02:37:18;;;;;;;16.45;7.05;;;10.80;99.90;;;;;;5025919;28;20022;-73
2023/10/24 02:39:44;;;;;;;15.50;7.43;;;10.80;99.90;;;;;;5031435;28;20374;-72
2023/10/24 02:42:09;;;;;;;13.10;7.45;;;10.80;99.90;;;;;;5030940;28;20485;-74
2023/10/24 02:44:35;;;;;;;11.43;7.60;;;10.80;99.90;;;;;;5043902;28;20553;-73
2023/10/24 02:47:01;;;;;;;12.75;7.28;;;10.80;99.90;;;;;;5050164;28;20106;-73
2023/10/24 02:49:26;;;;;;;15.48;7.80;;;10.70;99.90;;;;;;5037085;28;20029;-74
2023/10/24 02:51:52;;;;;;;14.48;7.75;;;10.80;99.90;;;;;;5044500;28;20052;-73
2023/10/24 02:54:18;;;;;;;12.13;6.93;;;10.80;99.90;;;;;;5038817;28;20481;-74
2023/10/24 02:56:43;;;;;;;13.43;7.20;;;10.80;99.90;;;;;;5029904;28;20469;-72
2023/10/24 02:59:09;;;;;;;12.88;7.47;;;10.70;99.90;;;;;;5037305;28;20390;-72
2023/10/24 03:01:35;;;;;;;10.77;6.85;;;10.70;99.90;;;;;;5046450;28;20461;-72
2023/10/24 03:04:01;;;;;;;14.73;7.00;;;10.60;99.90;;;;;;5040153;28;20656;-73
2023/10/24 03:06:26;;;;;;;12.10;6.85;;;10.60;99.90;;;;;;5032946;28;20116;-74
2023/10/24 03:08:52;;;;;;;11.40;7.03;;;10.60;99.90;;;;;;5029755;28;20083;-74
2023/10/24 03:11:22;;;;;;;14.48;7.57;;;10.60;99.90;;;;;;5039842;28;20056;-75
2023/10/24 03:13:48;;;;;;;10.43;6.88;;;10.50;99.90;;;;;;5034850;28;20104;-73
2023/10/24 03:16:14;;;;;;;15.60;7.95;;;10.50;99.90;;;;;;5036131;28;20063;-72
2023/10/24 03:18:40;;;;;;;10.50;6.65;;;10.50;99.90;;;;;;5041044;28;20033;-73
2023/10/24 03:21:07;;;;;;;15.20;7.78;;;10.60;99.90;;;;;;5041448;28;20070;-73
2023/10/24 03:23:33;;;;;;;13.50;7.22;;;10.60;99.90;;;;;;5048716;28;20094;-71
2023/10/24 03:26:00;;;;;;;13.00;7.40;;;10.60;99.90;;;;;;5033824;28;20037;-72
2023/10/24 03:28:25;;;;;;;11.35;7.03;;;10.60;99.90;;;;;;5041229;28;20382;-73
2023/10/24 03:31:05;;;;;;;13.98;7.40;;;10.60;99.90;;;;;;5034693;28;20040;-74
2023/10/24 03:33:31;;;;;;;14.77;7.40;;;10.60;99.90;;;;;;5045779;28;20033;-75
2023/10/24 03:35:57;;;;;;;13.60;7.20;;;10.60;99.90;;;;;;5040324;28;20059;-73
2023/10/24 03:38:23;;;;;;;13.43;7.25;;;10.50;99.90;;;;;;5040191;28;20098;-73
2023/10/24 03:40:49;;;;;;;11.73;7.30;;;10.50;99.90;;;;;;5040260;28;20157;-72
2023/10/24 03:43:15;;;;;;;15.40;7.60;;;10.50;99.90;;;;;;5037102;28;20030;-72
2023/10/24 03:45:41;;;;;;;12.77;8.05;;;10.60;99.90;;;;;;5030267;28;20159;-73
2023/10/24 03:48:07;;;;;;;14.20;8.45;;;10.60;99.90;;;;;;5031370;28;20068;-74
2023/10/24 03:50:37;;;;;;;14.82;7.80;;;10.60;99.90;;;;;;5031444;28;20119;-72
2023/10/24 03:53:04;;;;;;;15.30;8.25;;;10.60;99.90;;;;;;5050260;28;20048;-73
2023/10/24 03:55:30;;;;;;;14.45;8.23;;;10.60;99.90;;;;;;5050473;28;20040;-73
2023/10/24 03:57:56;;;;;;;16.35;8.48;;;10.70;99.90;;;;;;5039411;28;20036;-73
2023/10/24 04:00:22;;;;;;;20.13;9.63;;;10.60;99.90;;;;;;5031499;28;20039;-74
2023/10/24 04:02:54;;;;;;;19.85;11.95;;;10.60;99.90;;;;;;5035642;28;20033;-73
2023/10/24 04:05:20;;;;;;;16.15;8.48;;;10.60;99.90;;;;;;5031614;28;20030;-71
2023/10/24 04:07:46;;;;;;;15.32;8.68;;;10.50;99.90;;;;;;5045636;28;20052;-73
2023/10/24 04:10:12;;;;;;;15.18;8.13;;;10.40;99.90;;;;;;5030851;28;20557;-72
2023/10/24 04:12:39;;;;;;;17.15;8.40;;;10.40;99.90;;;;;;5041095;28;20500;-73
2023/10/24 04:15:05;;;;;;;17.45;7.70;;;10.40;99.90;;;;;;5045162;28;20029;-72
2023/10/24 04:17:32;;;;;;;15.27;8.13;;;10.50;99.90;;;;;;5034913;28;20029;-75
2023/10/24 04:19:58;;;;;;;14.23;7.97;;;10.50;99.90;;;;;;5034398;28;20060;-72
2023/10/24 04:22:24;;;;;;;21.83;9.30;;;10.50;99.90;;;;;;5026044;28;20484;-71
2023/10/24 04:24:49;;;;;;;19.42;10.18;;;10.60;99.90;;;;;;5028237;28;20112;-72
2023/10/24 04:27:16;;;;;;;19.90;10.05;;;10.60;99.90;;;;;;5029580;28;20049;-72
2023/10/24 04:29:42;;;;;;;18.73;10.10;;;10.70;99.90;;;;;;5032842;28;20034;-72
2023/10/24 04:32:07;;;;;;;18.00;11.02;;;10.80;99.90;;;;;;5027590;28;20037;-73
2023/10/24 04:34:33;;;;;;;21.05;10.35;;;10.80;99.90;;;;;;5035432;28;20036;-74
2023/10/24 04:37:00;;;;;;;16.08;7.88;;;10.90;99.90;;;;;;5041518;28;20018;-73
2023/10/24 04:39:26;;;;;;;19.52;8.45;;;10.90;99.90;;;;;;5013991;28;20037;-74
2023/10/24 04:41:52;;;;;;;18.98;9.48;;;10.80;99.90;;;;;;5033169;28;20040;-73
2023/10/24 04:44:17;;;;;;;20.55;10.77;;;10.70;99.90;;;;;;5028863;28;20060;-72
2023/10/24 04:46:44;;;;;;;20.20;11.35;;;10.80;99.90;;;;;;5026653;28;20037;-73
2023/10/24 04:49:09;;;;;;;21.55;10.45;;;10.90;99.90;;;;;;5029560;28;20083;-73
2023/10/24 04:51:35;;;;;;;17.63;9.15;;;10.90;99.90;;;;;;5045604;28;20037;-72
2023/10/24 04:54:00;;;;;;;17.63;9.02;;;11.00;99.90;;;;;;5027821;28;20639;-71
2023/10/24 04:56:26;;;;;;;21.23;10.88;;;10.90;99.90;;;;;;5029365;28;20434;-73
2023/10/24 04:58:54;;;;;;;20.80;11.02;;;11.00;99.90;;;;;;5008951;28;20137;-73
2023/10/24 05:01:20;;;;;;;19.98;10.45;;;11.10;99.90;;;;;;5040781;28;20086;-73
2023/10/24 05:03:46;;;;;;;19.55;10.68;;;11.20;99.90;;;;;;5038314;28;20477;-72
2023/10/24 05:06:12;;;;;;;21.20;10.50;;;11.40;99.90;;;;;;5038601;28;20025;-73
2023/10/24 05:08:38;;;;;;;19.23;10.40;;;11.50;99.90;;;;;;5023449;28;20047;-72
2023/10/24 05:11:04;;;;;;;23.13;10.77;;;11.50;99.90;;;;;;5034481;28;20474;-72
2023/10/24 05:13:29;;;;;;;20.30;10.07;;;11.60;99.90;;;;;;5039593;28;20513;-75
2023/10/24 05:15:55;;;;;;;22.42;10.00;;;11.60;99.90;;;;;;5033739;28;20675;-73
2023/10/24 05:18:21;;;;;;;18.20;10.20;;;11.50;99.90;;;;;;5027237;28;20075;-72
2023/10/24 05:20:47;;;;;;;19.98;10.02;;;11.50;99.90;;;;;;5034956;28;20482;-73
2023/10/24 05:23:12;;;;;;;22.13;10.90;;;11.50;99.90;;;;;;5030247;28;20034;-72
2023/10/24 05:25:38;;;;;;;19.35;9.98;;;11.50;99.90;;;;;;5037715;28;20394;-74
2023/10/24 05:28:04;;;;;;;25.20;12.15;;;11.50;99.90;;;;;;5023217;28;20037;-73
2023/10/24 05:30:29;;;;;;;23.63;10.43;;;11.50;99.90;;;;;;5018343;28;20544;-72
2023/10/24 05:32:58;;;;;;;20.15;10.10;;;11.50;99.90;;;;;;5020465;28;20025;-73
2023/10/24 05:35:23;;;;;;;17.63;9.90;;;11.50;99.90;;;;;;5042364;28;20029;-73
2023/10/24 05:37:49;;;;;;;20.38;10.23;;;11.40;99.90;;;;;;5028800;28;20033;-74
2023/10/24 05:40:15;;;;;;;20.67;10.15;;;11.40;99.90;;;;;;5041415;28;20037;-73
2023/10/24 05:42:41;;;;;;;17.60;9.75;;;11.40;99.90;;;;;;5022167;28;20111;-73
2023/10/24 05:45:07;;;;;;;18.15;9.95;;;11.40;99.90;;;;;;5046707;28;20354;-74
2023/10/24 05:47:33;;;;;;;19.27;9.88;;;11.30;99.90;;;;;;5035409;28;20052;-73
2023/10/24 05:49:59;;;;;;;23.42;10.13;;;11.30;99.90;;;;;;5028145;28;20021;-72
2023/10/24 05:52:24;;;;;;;17.52;10.20;;;11.30;99.90;;;;;;5024569;28;20079;-72
2023/10/24 05:54:52;;;;;;;16.73;10.13;;;11.30;99.90;;;;;;5033532;28;20481;-72
2023/10/24 05:57:17;;;;;;;23.23;11.27;;;11.30;99.90;;;;;;5025161;28;20474;-73
2023/10/24 05:59:43;;;;;;;20.42;10.10;;;11.30;99.90;;;;;;5007771;28;20041;-74
2023/10/24 06:02:08;;;;;;;18.60;10.73;;;11.30;99.90;;;;;;5031285;28;20022;-74
2023/10/24 06:04:34;;;;;;;20.05;10.70;;;11.30;99.90;;;;;;5020943;28;20096;-70
2023/10/24 06:07:00;;;;;;;19.77;11.00;;;11.20;99.90;;;;;;5034731;28;20060;-69
2023/10/24 06:09:26;;;;;;;22.15;10.60;;;11.30;99.90;;;;;;5033348;28;20032;-70
2023/10/24 06:11:52;;;;;;;23.00;10.88;;;11.30;99.90;;;;;;5029180;28;20068;-70
2023/10/24 06:14:17;;;;;;;22.65;12.65;;;11.20;99.90;;;;;;5039884;28;20037;-70
2023/10/24 06:16:43;;;;;;;19.67;11.40;;;11.30;99.90;;;;;;5030839;28;20358;-70
2023/10/24 06:19:09;;;;;;;22.25;11.43;;;11.20;99.90;;;;;;5026215;28;20026;-70
2023/10/24 06:21:34;;;;;;;23.10;11.63;;;11.20;99.90;;;;;;5019000;28;20501;-70
2023/10/24 06:24:00;;;;;;;21.63;11.57;;;11.20;99.90;;;;;;5032501;28;20092;-68
2023/10/24 06:26:26;;;;;;;19.77;11.10;;;11.30;99.90;;;;;;5032986;28;20508;-69
2023/10/24 06:28:52;;;;;;;23.48;11.25;;;11.30;99.90;;;;;;5030023;28;20087;-71
2023/10/24 06:31:17;;;;;;;23.88;12.10;;;11.30;99.90;;;;;;5032029;28;20413;-71
2023/10/24 06:33:43;;;;;;;28.00;13.07;;;11.30;99.90;;;;;;5012435;28;20060;-70
2023/10/24 06:36:09;;;;;;;23.50;12.98;;;11.30;99.90;;;;;;5035565;28;20482;-71
2023/10/24 06:38:34;;;;;;;30.10;14.13;;;11.30;99.90;;;;;;5032044;28;20022;-72
2023/10/24 06:41:01;;;;;;;27.40;14.10;;;11.30;99.90;;;;;;5031293;28;20167;-72
2023/10/24 06:43:27;;;;;;;26.73;13.27;;;11.30;99.90;;;;;;5031627;28;20017;-73
2023/10/24 06:45:53;;;;;;;26.05;14.15;;;11.30;99.90;;;;;;5035152;28;20425;-71
2023/10/24 06:48:19;;;;;;;28.42;13.63;;;11.40;99.90;;;;;;5044954;28;20058;-72
2023/10/24 06:50:45;;;;;;;28.95;14.57;;;11.40;99.90;;;;;;5030639;28;20393;-72
2023/10/24 06:53:12;;;;;;;25.80;13.25;;;11.40;99.90;;;;;;5031735;28;20025;-72
2023/10/24 07:15:03;;;;;;;23.88;10.10;;;10.90;99.90;;;;;;5414220;22;20068;-72
2023/10/24 07:17:30;;;;;;;19.55;11.10;;;10.90;99.90;;;;;;5070094;28;20033;-71
2023/10/24 07:19:56;;;;;;;21.50;11.02;;;10.90;99.90;;;;;;5070934;28;20507;-71
2023/10/24 07:22:22;;;;;;;20.20;10.32;;;10.90;99.90;;;;;;5070778;28;20686;-74
2023/10/24 07:24:48;;;;;;;20.75;10.68;;;11.00;99.90;;;;;;5069272;28;20033;-73
2023/10/24 07:27:13;;;;;;;22.48;11.45;;;11.10;99.90;;;;;;5069754;28;20461;-73
2023/10/24 07:29:39;;;;;;;21.40;11.55;;;11.10;99.90;;;;;;5069898;28;20065;-73
2023/10/24 07:32:05;;;;;;;20.35;10.20;;;11.20;99.90;;;;;;5069064;28;20048;-73
2023/10/24 07:34:34;;;;;;;19.38;10.70;;;11.20;99.90;;;;;;5055839;28;20036;-73
2023/10/24 07:37:00;;;;;;;18.92;10.40;;;11.10;99.90;;;;;;5050696;28;20366;-71
2023/10/24 07:39:26;;;;;;;21.25;10.07;;;11.10;99.90;;;;;;5050360;28;20048;-74
2023/10/24 07:41:52;;;;;;;22.25;11.45;;;11.10;99.90;;;;;;5050912;28;20139;-71
2023/10/24 07:44:18;;;;;;;22.23;10.80;;;11.10;99.90;;;;;;5055855;28;20037;-73
2023/10/24 07:46:44;;;;;;;25.98;11.35;;;11.20;99.90;;;;;;5069903;28;20056;-72
2023/10/24 07:49:10;;;;;;;24.63;12.55;;;11.20;99.90;;;;;;5070704;28;20039;-72
2023/10/24 07:51:35;;;;;;;33.50;16.42;;;11.10;99.90;;;;;;5069726;28;20070;-71
2023/10/24 07:54:01;;;;;;;38.95;19.42;;;11.10;99.90;;;;;;5069250;28;20055;-71
2023/10/24 07:56:27;;;;;;;34.08;17.92;;;11.10;99.90;;;;;;5069692;28;20035;-72
2023/10/24 07:58:52;;;;;;;34.17;19.23;;;11.20;99.90;;;;;;5061588;28;20037;-73
2023/10/24 08:01:18;;;;;;;28.90;14.23;;;11.20;99.90;;;;;;5050181;28;20032;-72
2023/10/24 08:03:44;;;;;;;23.60;14.10;;;11.30;99.90;;;;;;5069193;28;20644;-71
2023/10/24 08:06:13;;;;;;;26.00;14.25;;;11.30;99.90;;;;;;5085464;28;20377;-73
2023/10/24 08:08:43;;;;;;;32.53;16.40;;;11.40;99.90;;;;;;5069475;28;20376;-73
2023/10/24 08:11:09;;;;;;;27.15;14.43;;;11.40;99.90;;;;;;5070155;28;20036;-73
2023/10/24 08:13:35;;;;;;;22.40;12.60;;;11.50;99.90;;;;;;5067532;28;20366;-72
2023/10/24 08:16:01;;;;;;;27.15;11.93;;;11.60;99.90;;;;;;5069738;28;20066;-71
2023/10/24 08:18:27;;;;;;;20.05;10.65;;;11.60;99.90;;;;;;5069437;28;20028;-72
2023/10/24 08:20:54;;;;;;;24.35;10.90;;;11.70;99.90;;;;;;5068387;28;20042;-72
2023/10/24 08:23:19;;;;;;;22.05;11.57;;;11.60;99.90;;;;;;5054875;28;20033;-72
2023/10/24 08:25:45;;;;;;;21.00;10.90;;;11.60;99.90;;;;;;5049087;28;20029;-72
2023/10/24 08:28:11;;;;;;;20.88;11.13;;;11.60;99.90;;;;;;5049615;28;20031;-73
2023/10/24 08:30:38;;;;;;;21.55;10.75;;;11.60;99.90;;;;;;5065615;28;20490;-73
2023/10/24 08:33:03;;;;;;;21.05;11.35;;;11.60;99.90;;;;;;5069409;28;20028;-71
2023/10/24 08:35:29;;;;;;;22.23;11.80;;;11.50;99.90;;;;;;5067424;28;20354;-71
2023/10/24 08:37:55;;;;;;;26.80;13.25;;;11.60;99.90;;;;;;5069957;28;20517;-72
2023/10/24 08:40:21;;;;;;;22.05;11.57;;;11.60;99.90;;;;;;5055246;28;20029;-73
2023/10/24 08:42:46;;;;;;;19.10;10.32;;;11.70;99.90;;;;;;5048511;28;20044;-73
2023/10/24 08:45:17;;;;;;;22.58;11.25;;;11.60;99.90;;;;;;5063631;28;20044;-73
2023/10/24 08:47:45;;;;;;;21.52;11.35;;;11.60;99.90;;;;;;5068533;28;20081;-71
2023/10/24 08:50:11;;;;;;;20.33;11.75;;;11.60;99.90;;;;;;5057213;28;20065;-73
2023/10/24 08:52:37;;;;;;;24.98;12.02;;;11.60;99.90;;;;;;5069758;28;20067;-73
2023/10/24 08:55:04;;;;;;;24.60;11.88;;;11.60;99.90;;;;;;5069367;28;20040;-73
2023/10/24 08:57:34;;;;;;;20.35;10.43;;;11.70;99.90;;;;;;5068449;28;20027;-72
2023/10/24 09:00:01;;;;;;;21.80;10.65;;;11.70;99.90;;;;;;5057982;28;20128;-71
2023/10/24 09:02:27;;;;;;;19.30;11.13;;;11.70;99.90;;;;;;5049022;28;20040;-75
2023/10/24 09:04:53;;;;;;;20.35;11.23;;;11.70;99.90;;;;;;5066267;28;20047;-71
2023/10/24 09:07:19;;;;;;;21.42;10.55;;;11.70;99.90;;;;;;5065838;28;20534;-71
2023/10/24 09:09:45;;;;;;;24.65;11.95;;;11.70;99.90;;;;;;5048097;28;20040;-72
2023/10/24 09:12:30;;;;;;;31.33;13.45;;;11.70;99.90;;;;;;5037042;28;20049;-73
2023/10/24 09:14:56;;;;;;;29.13;11.82;;;11.80;99.90;;;;;;5060462;28;20477;-72
2023/10/24 09:17:23;;;;;;;21.02;10.55;;;11.80;99.90;;;;;;5068207;28;20036;-73
2023/10/24 09:19:49;;;;;;;22.75;12.30;;;11.80;99.90;;;;;;5066134;28;20119;-71
2023/10/24 09:22:17;;;;;;;22.58;12.38;;;11.80;99.90;;;;;;5068624;28;20112;-72
2023/10/24 09:24:50;;;;;;;26.05;11.88;;;11.80;99.90;;;;;;5068210;28;20120;-71
2023/10/24 09:27:25;;;;;;;20.77;11.70;;;11.90;99.90;;;;;;5068932;28;20025;-71
2023/10/24 09:29:51;;;;;;;24.33;13.18;;;11.90;99.90;;;;;;5063638;28;20787;-73
2023/10/24 09:32:18;;;;;;;29.73;13.63;;;11.90;99.90;;;;;;5053907;28;20448;-73
2023/10/24 09:34:44;;;;;;;26.55;15.07;;;11.90;99.90;;;;;;5048036;28;20029;-71
2023/10/24 09:37:13;;;;;;;25.15;12.82;;;12.00;99.90;;;;;;5047402;28;20029;-72
2023/10/24 09:39:55;;;;;;;22.17;12.65;;;11.80;99.90;;;;;;5050465;28;20025;-71
2023/10/24 09:42:29;;;;;;;26.77;13.02;;;11.80;99.90;;;;;;5068554;28;20111;-73
2023/10/24 09:44:57;;;;;;;31.45;13.48;;;11.80;99.90;;;;;;5068521;28;20086;-72
2023/10/24 09:47:24;;;;;;;29.67;13.60;;;11.80;99.90;;;;;;5068559;28;20029;-73
2023/10/24 09:49:51;;;;;;;27.80;13.63;;;11.80;99.90;;;;;;5062381;28;20716;-72
2023/10/24 09:52:19;;;;;;;23.75;12.90;;;11.80;99.90;;;;;;5048672;28;20116;-73
2023/10/24 09:54:47;;;;;;;29.42;13.68;;;11.70;99.90;;;;;;5047604;28;20030;-73
2023/10/24 09:57:18;;;;;;;25.73;14.32;;;11.60;99.90;;;;;;5068699;28;20103;-72
2023/10/24 09:59:46;;;;;;;29.52;13.82;;;11.60;99.90;;;;;;5071754;28;20020;-71
2023/10/24 10:02:14;;;;;;;29.77;14.63;;;11.60;99.90;;;;;;5072632;28;20036;-73
2023/10/24 10:04:41;;;;;;;29.73;15.10;;;11.60;99.90;;;;;;5070506;28;20377;-73
2023/10/24 10:07:10;;;;;;;28.23;14.43;;;11.60;99.90;;;;;;5071892;28;20036;-73
2023/10/24 10:09:41;;;;;;;32.47;14.50;;;11.60;99.90;;;;;;5071667;28;20060;-72
2023/10/24 10:12:12;;;;;;;26.67;14.45;;;11.70;99.90;;;;;;5072398;28;20039;-73
2023/10/24 10:15:17;;;;;;;26.23;13.70;;;11.70;99.90;;;;;;5070125;28;20056;-72
2023/10/24 10:18:03;;;;;;;27.95;14.88;;;11.70;99.90;;;;;;5071633;28;20481;-73
2023/10/24 10:20:42;;;;;;;27.70;13.55;;;11.70;99.90;;;;;;5072320;28;20040;-73
2023/10/24 10:23:45;;;;;;;23.90;13.68;;;11.70;99.90;;;;;;5072403;28;20032;-73
2023/10/24 10:26:29;;;;;;;25.13;13.40;;;11.80;99.90;;;;;;5071197;28;20052;-72
2023/10/24 10:29:13;;;;;;;29.58;14.73;;;11.80;99.90;;;;;;5070829;28;20591;-71
2023/10/24 10:31:57;;;;;;;29.45;14.15;;;11.90;99.90;;;;;;5071260;28;20028;-72
2023/10/24 10:34:36;;;;;;;31.75;14.10;;;11.90;99.90;;;;;;5071876;28;20074;-74
2023/10/24 10:37:02;;;;;;;25.17;14.18;;;12.00;99.90;;;;;;5071982;28;20028;-71
2023/10/24 10:39:29;;;;;;;29.30;15.40;;;12.00;99.90;;;;;;5071762;28;20028;-72
2023/10/24 10:41:55;;;;;;;28.85;14.32;;;12.10;99.90;;;;;;5071093;28;20024;-71
2023/10/24 10:44:34;;;;;;;33.20;15.35;;;12.10;99.90;;;;;;5071465;28;20032;-73
2023/10/24 10:47:01;;;;;;;25.83;14.38;;;12.10;99.90;;;;;;5051444;28;20040;-73
2023/10/24 10:49:43;;;;;;;26.27;14.82;;;12.10;99.90;;;;;;5051908;28;20173;-73
2023/10/24 10:52:26;;;;;;;25.95;14.75;;;12.10;99.90;;;;;;5051774;28;20049;-73
2023/10/24 10:55:20;;;;;;;26.85;14.70;;;12.00;99.90;;;;;;5051229;28;20029;-74
2023/10/24 10:58:10;;;;;;;23.48;13.73;;;12.00;99.90;;;;;;5060009;28;20181;-73
2023/10/24 11:00:57;;;;;;;26.08;13.60;;;12.00;99.90;;;;;;5053672;28;20531;-75
2023/10/24 11:03:36;;;;;;;26.67;12.70;;;12.00;99.90;;;;;;5051631;28;20118;-74
2023/10/24 11:06:15;;;;;;;28.05;13.45;;;12.00;99.90;;;;;;5062149;28;20040;-74
2023/10/24 11:08:50;;;;;;;22.73;12.98;;;12.00;99.90;;;;;;5070528;28;20028;-72
2023/10/24 11:11:20;;;;;;;22.35;12.60;;;12.00;99.90;;;;;;5070975;28;20029;-72
2023/10/24 11:13:49;;;;;;;26.60;12.40;;;12.10;99.90;;;;;;5069972;28;20106;-73
2023/10/24 11:16:15;;;;;;;24.45;11.88;;;12.10;99.90;;;;;;5057580;28;20029;-73
2023/10/24 11:18:41;;;;;;;23.80;11.27;;;12.10;99.90;;;;;;5050210;28;20367;-73
2023/10/24 11:21:12;;;;;;;23.63;12.07;;;12.20;99.90;;;;;;5051258;28;20029;-74
2023/10/24 11:23:41;;;;;;;24.15;12.50;;;12.30;99.90;;;;;;5050322;28;20496;-74
2023/10/24 11:26:08;;;;;;;21.60;12.15;;;12.30;99.90;;;;;;5062658;28;20032;-73
2023/10/24 11:28:33;;;;;;;22.48;12.80;;;12.40;99.90;;;;;;5069485;28;20086;-74
2023/10/24 11:31:21;;;;;;;21.70;12.25;;;12.40;99.90;;;;;;5070340;28;20029;-71
2023/10/24 11:33:48;;;;;;;20.92;12.55;;;12.40;99.90;;;;;;5070171;28;20028;-73
2023/10/24 11:36:14;;;;;;;22.20;12.73;;;12.40;99.90;;;;;;5069927;28;20028;-73
2023/10/24 11:38:39;;;;;;;23.02;12.23;;;12.40;99.90;;;;;;5070301;28;20660;-74
2023/10/24 11:41:05;;;;;;;23.70;13.32;;;12.50;99.90;;;;;;5070716;28;20178;-73
2023/10/24 11:43:32;;;;;;;25.13;12.65;;;12.60;99.90;;;;;;5070797;28;20594;-73
2023/10/24 11:45:58;;;;;;;17.20;10.35;;;12.50;99.90;;;;;;5068954;28;20032;-72
2023/10/24 11:48:24;;;;;;;20.83;10.63;;;12.50;99.90;;;;;;5070580;28;20032;-73
2023/10/24 11:50:49;;;;;;;21.92;11.57;;;12.50;99.90;;;;;;5069709;28;20039;-72
2023/10/24 11:53:22;;;;;;;18.58;10.75;;;12.50;99.90;;;;;;5069449;28;20029;-74
2023/10/24 11:55:49;;;;;;;19.25;10.38;;;12.50;99.90;;;;;;5069493;28;20020;-74
2023/10/24 11:58:15;;;;;;;15.95;9.90;;;12.50;99.90;;;;;;5070530;28;20152;-73
2023/10/24 12:00:43;;;;;;;19.92;10.07;;;12.40;99.90;;;;;;5069450;28;20032;-73
2023/10/24 12:03:09;;;;;;;19.90;10.38;;;12.40;99.90;;;;;;5069664;28;20032;-73
2023/10/24 12:05:35;;;;;;;19.50;10.43;;;12.40;99.90;;;;;;5052121;28;20025;-72
2023/10/24 12:08:03;;;;;;;18.13;10.00;;;12.50;99.90;;;;;;5050027;28;20033;-72
2023/10/24 12:10:30;;;;;;;23.48;11.05;;;12.50;99.90;;;;;;5050170;28;20029;-74
2023/10/24 12:12:58;;;;;;;22.23;11.40;;;12.40;99.90;;;;;;5054289;28;20104;-73
2023/10/24 12:15:25;;;;;;;22.90;11.88;;;12.40;99.90;;;;;;5064994;28;20057;-74
2023/10/24 12:17:51;;;;;;;20.17;11.50;;;12.40;99.90;;;;;;5057924;28;20063;-72
2023/10/24 12:20:17;;;;;;;18.90;11.60;;;12.40;99.90;;;;;;5050033;28;20024;-74
2023/10/24 12:22:46;;;;;;;20.52;11.85;;;12.40;99.90;;;;;;5049092;28;20037;-73
2023/10/24 12:25:13;;;;;;;21.30;11.80;;;12.40;99.90;;;;;;5050209;28;20112;-73
2023/10/24 12:27:39;;;;;;;19.58;9.48;;;12.30;99.90;;;;;;5049438;28;20416;-75
2023/10/24 12:30:05;;;;;;;18.20;9.40;;;12.30;99.90;;;;;;5049271;28;20021;-73
2023/10/24 12:32:31;;;;;;;16.08;8.63;;;12.30;99.90;;;;;;5047994;28;20033;-71
2023/10/24 12:34:56;;;;;;;17.55;9.80;;;12.30;99.90;;;;;;5048576;28;20098;-73
2023/10/24 12:37:22;;;;;;;19.25;8.75;;;12.20;99.90;;;;;;5049715;28;20496;-74
2023/10/24 12:39:49;;;;;;;17.02;8.57;;;12.20;99.90;;;;;;5048855;28;20029;-74
2023/10/24 12:42:15;;;;;;;19.40;8.88;;;12.10;99.90;;;;;;5049544;28;20032;-72
2023/10/24 12:44:40;;;;;;;16.05;9.60;;;12.20;99.90;;;;;;5058428;28;20094;-74
2023/10/24 12:47:08;;;;;;;15.85;9.00;;;12.20;99.90;;;;;;5069322;28;20020;-73
2023/10/24 12:49:34;;;;;;;20.30;9.50;;;12.20;99.90;;;;;;5069456;28;20457;-72
2023/10/24 12:52:00;;;;;;;19.33;9.60;;;12.20;99.90;;;;;;5068504;28;20093;-73